sensor_id;sensor_type;location;lat;lon;timestamp;pressure;altitude;pressure_sealevel;temperature;humidity
49102;BME280;34913;47.520;19.186;2023-04-08T00:01:52;100091.41;;;3.78;97.68
49102;BME280;34913;47.520;19.186;2023-04-08T00:04:17;100093.94;;;3.64;98.08
49102;BME280;34913;47.520;19.186;2023-04-08T00:06:43;100098.34;;;3.46;99.66
49102;BME280;34913;47.520;19.186;2023-04-08T00:09:09;100091.63;;;3.58;100.00
49102;BME280;34913;47.520;19.186;2023-04-08T00:11:34;100097.25;;;3.68;100.00
49102;BME280;34913;47.520;19.186;2023-04-08T00:14:02;100097.50;;;3.79;100.00
49102;BME280;34913;47.520;19.186;2023-04-08T00:16:28;100097.38;;;3.82;100.00
49102;BME280;34913;47.520;19.186;2023-04-08T00:18:54;100095.31;;;3.87;100.00
49102;BME280;34913;47.520;19.186;2023-04-08T00:21:19;100095.94;;;3.92;100.00
49102;BME280;34913;47.520;19.186;2023-04-08T00:23:45;100096.03;;;4.06;99.51
49102;BME280;34913;47.520;19.186;2023-04-08T00:26:11;100097.22;;;4.01;98.71
49102;BME280;34913;47.520;19.186;2023-04-08T00:28:37;100099.06;;;3.83;98.73
49102;BME280;34913;47.520;19.186;2023-04-08T00:31:02;100103.25;;;3.70;99.31
49102;BME280;34913;47.520;19.186;2023-04-08T00:33:28;100102.25;;;3.72;100.00
49102;BME280;34913;47.520;19.186;2023-04-08T00:35:53;100109.44;;;3.69;100.00
49102;BME280;34913;47.520;19.186;2023-04-08T00:38:19;100099.94;;;3.66;100.00
49102;BME280;34913;47.520;19.186;2023-04-08T00:40:45;100097.84;;;3.73;100.00
49102;BME280;34913;47.520;19.186;2023-04-08T00:43:10;100105.16;;;3.83;100.00
49102;BME280;34913;47.520;19.186;2023-04-08T00:45:37;100104.66;;;3.92;100.00
49102;BME280;34913;47.520;19.186;2023-04-08T00:48:03;100104.06;;;3.87;100.00
49102;BME280;34913;47.520;19.186;2023-04-08T00:50:29;100107.38;;;3.91;100.00
49102;BME280;34913;47.520;19.186;2023-04-08T00:52:55;100103.13;;;3.88;100.00
49102;BME280;34913;47.520;19.186;2023-04-08T00:55:20;100104.63;;;3.77;100.00
49102;BME280;34913;47.520;19.186;2023-04-08T00:57:46;100109.28;;;3.72;100.00
49102;BME280;34913;47.520;19.186;2023-04-08T01:00:12;100106.50;;;3.75;100.00
49102;BME280;34913;47.520;19.186;2023-04-08T01:02:46;100111.34;;;3.82;100.00
49102;BME280;34913;47.520;19.186;2023-04-08T01:05:26;100099.72;;;3.86;100.00
49102;BME280;34913;47.520;19.186;2023-04-08T01:07:53;100104.91;;;3.88;100.00
49102;BME280;34913;47.520;19.186;2023-04-08T01:12:49;100112.59;;;3.75;100.00
49102;BME280;34913;47.520;19.186;2023-04-08T01:15:16;100108.41;;;3.71;100.00
49102;BME280;34913;47.520;19.186;2023-04-08T01:17:42;100105.63;;;3.74;100.00
49102;BME280;34913;47.520;19.186;2023-04-08T01:20:09;100112.41;;;3.78;100.00
49102;BME280;34913;47.520;19.186;2023-04-08T01:25:15;100107.94;;;3.80;100.00
49102;BME280;34913;47.520;19.186;2023-04-08T01:27:42;100107.00;;;3.81;100.00
49102;BME280;34913;47.520;19.186;2023-04-08T01:30:08;100105.38;;;3.79;100.00
49102;BME280;34913;47.520;19.186;2023-04-08T01:32:34;100106.41;;;3.76;100.00
49102;BME280;34913;47.520;19.186;2023-04-08T01:35:01;100108.09;;;3.77;100.00
49102;BME280;34913;47.520;19.186;2023-04-08T01:37:28;100102.31;;;3.71;100.00
49102;BME280;34913;47.520;19.186;2023-04-08T01:39:55;100099.81;;;3.52;100.00
49102;BME280;34913;47.520;19.186;2023-04-08T01:42:23;100107.00;;;3.48;100.00
49102;BME280;34913;47.520;19.186;2023-04-08T01:44:54;100106.16;;;3.48;100.00
49102;BME280;34913;47.520;19.186;2023-04-08T01:47:21;100103.53;;;3.48;100.00
49102;BME280;34913;47.520;19.186;2023-04-08T01:49:47;100104.69;;;3.42;100.00
49102;BME280;34913;47.520;19.186;2023-04-08T01:52:15;100095.53;;;3.33;100.00
49102;BME280;34913;47.520;19.186;2023-04-08T01:54:42;100104.16;;;3.35;100.00
49102;BME280;34913;47.520;19.186;2023-04-08T01:57:11;100100.38;;;3.41;100.00
49102;BME280;34913;47.520;19.186;2023-04-08T01:59:39;100101.75;;;3.48;100.00
49102;BME280;34913;47.520;19.186;2023-04-08T02:02:08;100109.28;;;3.54;100.00
49102;BME280;34913;47.520;19.186;2023-04-08T02:04:34;100104.78;;;3.41;100.00
49102;BME280;34913;47.520;19.186;2023-04-08T02:07:00;100099.53;;;3.41;100.00
49102;BME280;34913;47.520;19.186;2023-04-08T02:09:26;100102.47;;;3.34;100.00
49102;BME280;34913;47.520;19.186;2023-04-08T02:11:52;100099.94;;;3.33;100.00
49102;BME280;34913;47.520;19.186;2023-04-08T02:14:17;100099.75;;;3.36;100.00
49102;BME280;34913;47.520;19.186;2023-04-08T02:16:52;100098.28;;;3.30;100.00
49102;BME280;34913;47.520;19.186;2023-04-08T02:19:29;100093.44;;;3.40;100.00
49102;BME280;34913;47.520;19.186;2023-04-08T02:22:05;100093.28;;;3.43;100.00
49102;BME280;34913;47.520;19.186;2023-04-08T02:24:35;100096.91;;;3.41;100.00
49102;BME280;34913;47.520;19.186;2023-04-08T02:27:02;100093.88;;;3.31;100.00
49102;BME280;34913;47.520;19.186;2023-04-08T02:29:30;100094.28;;;3.23;100.00
49102;BME280;34913;47.520;19.186;2023-04-08T02:31:57;100091.66;;;3.23;100.00
49102;BME280;34913;47.520;19.186;2023-04-08T02:34:23;100098.53;;;3.26;100.00
49102;BME280;34913;47.520;19.186;2023-04-08T02:36:50;100096.38;;;3.34;100.00
49102;BME280;34913;47.520;19.186;2023-04-08T02:39:16;100094.28;;;3.41;100.00
49102;BME280;34913;47.520;19.186;2023-04-08T02:41:41;100087.19;;;3.43;100.00
49102;BME280;34913;47.520;19.186;2023-04-08T02:44:08;100098.03;;;3.52;100.00
49102;BME280;34913;47.520;19.186;2023-04-08T02:46:34;100097.41;;;3.47;100.00
49102;BME280;34913;47.520;19.186;2023-04-08T02:48:59;100094.50;;;3.36;100.00
49102;BME280;34913;47.520;19.186;2023-04-08T02:51:25;100099.66;;;3.38;100.00
49102;BME280;34913;47.520;19.186;2023-04-08T02:53:52;100101.81;;;3.47;100.00
49102;BME280;34913;47.520;19.186;2023-04-08T02:56:17;100095.59;;;3.49;100.00
49102;BME280;34913;47.520;19.186;2023-04-08T02:58:43;100101.22;;;3.42;100.00
49102;BME280;34913;47.520;19.186;2023-04-08T03:01:08;100096.19;;;3.37;100.00
49102;BME280;34913;47.520;19.186;2023-04-08T03:03:34;100096.97;;;3.39;100.00
49102;BME280;34913;47.520;19.186;2023-04-08T03:06:01;100094.97;;;3.44;100.00
49102;BME280;34913;47.520;19.186;2023-04-08T03:08:26;100094.97;;;3.44;100.00
49102;BME280;34913;47.520;19.186;2023-04-08T03:10:52;100089.44;;;3.33;100.00
49102;BME280;34913;47.520;19.186;2023-04-08T03:13:17;100095.44;;;3.35;100.00
49102;BME280;34913;47.520;19.186;2023-04-08T03:15:43;100098.69;;;3.40;100.00
49102;BME280;34913;47.520;19.186;2023-04-08T03:18:08;100103.00;;;3.41;100.00
49102;BME280;34913;47.520;19.186;2023-04-08T03:20:34;100101.75;;;3.31;100.00
49102;BME280;34913;47.520;19.186;2023-04-08T03:22:59;100104.31;;;3.32;100.00
49102;BME280;34913;47.520;19.186;2023-04-08T03:25:25;100098.53;;;3.26;100.00
49102;BME280;34913;47.520;19.186;2023-04-08T03:27:50;100098.84;;;3.20;100.00
49102;BME280;34913;47.520;19.186;2023-04-08T03:30:16;100109.25;;;3.21;100.00
49102;BME280;34913;47.520;19.186;2023-04-08T03:32:41;100103.00;;;3.24;100.00
49102;BME280;34913;47.520;19.186;2023-04-08T03:35:07;100109.72;;;3.12;100.00
49102;BME280;34913;47.520;19.186;2023-04-08T03:37:33;100111.50;;;3.12;100.00
49102;BME280;34913;47.520;19.186;2023-04-08T03:39:58;100114.34;;;3.07;100.00
49102;BME280;34913;47.520;19.186;2023-04-08T03:42:24;100112.94;;;3.00;100.00
49102;BME280;34913;47.520;19.186;2023-04-08T03:44:50;100111.03;;;3.03;100.00
49102;BME280;34913;47.520;19.186;2023-04-08T03:47:15;100117.50;;;3.14;100.00
49102;BME280;34913;47.520;19.186;2023-04-08T03:49:41;100117.75;;;3.09;100.00
49102;BME280;34913;47.520;19.186;2023-04-08T03:52:06;100127.22;;;3.12;100.00
49102;BME280;34913;47.520;19.186;2023-04-08T03:54:32;100127.00;;;3.16;100.00
49102;BME280;34913;47.520;19.186;2023-04-08T03:56:57;100123.00;;;3.26;100.00
49102;BME280;34913;47.520;19.186;2023-04-08T03:59:23;100125.06;;;3.37;100.00
49102;BME280;34913;47.520;19.186;2023-04-08T04:01:49;100137.72;;;3.29;100.00
49102;BME280;34913;47.520;19.186;2023-04-08T04:04:15;100130.94;;;3.25;100.00
49102;BME280;34913;47.520;19.186;2023-04-08T04:06:41;100131.47;;;3.31;100.00
49102;BME280;34913;47.520;19.186;2023-04-08T04:09:06;100132.78;;;3.23;100.00
49102;BME280;34913;47.520;19.186;2023-04-08T04:11:33;100137.16;;;3.22;100.00
49102;BME280;34913;47.520;19.186;2023-04-08T04:13:59;100135.41;;;3.23;100.00
49102;BME280;34913;47.520;19.186;2023-04-08T04:16:24;100135.47;;;3.21;100.00
49102;BME280;34913;47.520;19.186;2023-04-08T04:18:51;100143.19;;;3.07;100.00
49102;BME280;34913;47.520;19.186;2023-04-08T04:21:17;100141.09;;;3.14;100.00
49102;BME280;34913;47.520;19.186;2023-04-08T04:23:43;100137.25;;;3.21;100.00
49102;BME280;34913;47.520;19.186;2023-04-08T04:26:09;100142.59;;;3.19;100.00
49102;BME280;34913;47.520;19.186;2023-04-08T04:28:35;100144.75;;;3.28;100.00
49102;BME280;34913;47.520;19.186;2023-04-08T04:31:00;100138.94;;;3.22;100.00
49102;BME280;34913;47.520;19.186;2023-04-08T04:33:26;100146.22;;;3.17;100.00
49102;BME280;34913;47.520;19.186;2023-04-08T04:35:51;100152.78;;;3.25;100.00
49102;BME280;34913;47.520;19.186;2023-04-08T04:38:17;100142.03;;;3.30;100.00
49102;BME280;34913;47.520;19.186;2023-04-08T04:40:42;100151.22;;;3.21;100.00
49102;BME280;34913;47.520;19.186;2023-04-08T04:43:08;100142.19;;;3.10;100.00
49102;BME280;34913;47.520;19.186;2023-04-08T04:45:34;100144.88;;;3.08;100.00
49102;BME280;34913;47.520;19.186;2023-04-08T04:48:00;100146.22;;;3.17;100.00
49102;BME280;34913;47.520;19.186;2023-04-08T04:50:25;100147.53;;;3.25;100.00
49102;BME280;34913;47.520;19.186;2023-04-08T04:52:51;100153.47;;;3.29;100.00
49102;BME280;34913;47.520;19.186;2023-04-08T04:55:16;100147.56;;;3.24;100.00
49102;BME280;34913;47.520;19.186;2023-04-08T04:57:42;100149.91;;;3.30;100.00
49102;BME280;34913;47.520;19.186;2023-04-08T05:00:09;100153.31;;;3.32;100.00
49102;BME280;34913;47.520;19.186;2023-04-08T05:02:35;100155.31;;;3.27;100.00
49102;BME280;34913;47.520;19.186;2023-04-08T05:05:00;100156.00;;;3.30;100.00
49102;BME280;34913;47.520;19.186;2023-04-08T05:07:26;100167.19;;;3.34;100.00
49102;BME280;34913;47.520;19.186;2023-04-08T05:09:51;100160.09;;;3.36;100.00
49102;BME280;34913;47.520;19.186;2023-04-08T05:12:17;100153.75;;;3.23;100.00
49102;BME280;34913;47.520;19.186;2023-04-08T05:14:45;100158.88;;;3.26;100.00
49102;BME280;34913;47.520;19.186;2023-04-08T05:17:11;100165.56;;;3.14;100.00
49102;BME280;34913;47.520;19.186;2023-04-08T05:19:36;100167.97;;;3.19;100.00
49102;BME280;34913;47.520;19.186;2023-04-08T05:22:01;100169.75;;;3.18;100.00
49102;BME280;34913;47.520;19.186;2023-04-08T05:24:27;100172.50;;;3.15;100.00
49102;BME280;34913;47.520;19.186;2023-04-08T05:26:52;100181.38;;;3.30;100.00
49102;BME280;34913;47.520;19.186;2023-04-08T05:29:18;100184.16;;;3.44;100.00
49102;BME280;34913;47.520;19.186;2023-04-08T05:31:46;100185.47;;;3.53;100.00
49102;BME280;34913;47.520;19.186;2023-04-08T05:34:11;100182.09;;;3.51;100.00
49102;BME280;34913;47.520;19.186;2023-04-08T05:36:37;100189.25;;;3.47;100.00
49102;BME280;34913;47.520;19.186;2023-04-08T05:39:02;100184.72;;;3.33;100.00
49102;BME280;34913;47.520;19.186;2023-04-08T05:41:28;100183.41;;;3.42;100.00
49102;BME280;34913;47.520;19.186;2023-04-08T05:43:53;100186.63;;;3.47;100.00
49102;BME280;34913;47.520;19.186;2023-04-08T05:46:19;100197.13;;;3.47;100.00
49102;BME280;34913;47.520;19.186;2023-04-08T05:48:44;100185.56;;;3.51;100.00
49102;BME280;34913;47.520;19.186;2023-04-08T05:51:13;100190.91;;;3.50;100.00
49102;BME280;34913;47.520;19.186;2023-04-08T05:53:39;100185.09;;;3.60;100.00
49102;BME280;34913;47.520;19.186;2023-04-08T05:56:05;100193.97;;;3.58;100.00
49102;BME280;34913;47.520;19.186;2023-04-08T05:58:31;100196.59;;;3.41;100.00
49102;BME280;34913;47.520;19.186;2023-04-08T06:00:56;100189.72;;;3.38;100.00
49102;BME280;34913;47.520;19.186;2023-04-08T06:03:21;100196.28;;;3.47;100.00
49102;BME280;34913;47.520;19.186;2023-04-08T06:05:47;100203.47;;;3.43;100.00
49102;BME280;34913;47.520;19.186;2023-04-08T06:08:12;100201.38;;;3.32;100.00
49102;BME280;34913;47.520;19.186;2023-04-08T06:10:38;100200.00;;;3.25;100.00
49102;BME280;34913;47.520;19.186;2023-04-08T06:13:03;100203.59;;;3.23;100.00
49102;BME280;34913;47.520;19.186;2023-04-08T06:15:28;100198.69;;;3.34;100.00
49102;BME280;34913;47.520;19.186;2023-04-08T06:17:54;100202.16;;;3.34;100.00
49102;BME280;34913;47.520;19.186;2023-04-08T06:20:20;100204.84;;;3.33;100.00
49102;BME280;34913;47.520;19.186;2023-04-08T06:22:45;100206.19;;;3.42;100.00
49102;BME280;34913;47.520;19.186;2023-04-08T06:25:11;100212.28;;;3.42;100.00
49102;BME280;34913;47.520;19.186;2023-04-08T06:27:36;100207.41;;;3.34;100.00
49102;BME280;34913;47.520;19.186;2023-04-08T06:30:02;100214.63;;;3.29;100.00
49102;BME280;34913;47.520;19.186;2023-04-08T06:32:27;100214.25;;;3.20;100.00
49102;BME280;34913;47.520;19.186;2023-04-08T06:34:53;100222.28;;;3.17;100.00
49102;BME280;34913;47.520;19.186;2023-04-08T06:37:18;100218.47;;;3.22;100.00
49102;BME280;34913;47.520;19.186;2023-04-08T06:39:43;100223.13;;;3.34;100.00
49102;BME280;34913;47.520;19.186;2023-04-08T06:42:09;100219.91;;;3.47;100.00
49102;BME280;34913;47.520;19.186;2023-04-08T06:44:35;100212.19;;;3.44;100.00
49102;BME280;34913;47.520;19.186;2023-04-08T06:47:00;100219.47;;;3.56;100.00
49102;BME280;34913;47.520;19.186;2023-04-08T06:49:26;100224.75;;;3.54;100.00
49102;BME280;34913;47.520;19.186;2023-04-08T06:51:51;100225.38;;;3.59;100.00
49102;BME280;34913;47.520;19.186;2023-04-08T06:54:17;100229.50;;;3.65;100.00
49102;BME280;34913;47.520;19.186;2023-04-08T06:56:42;100234.50;;;3.52;100.00
49102;BME280;34913;47.520;19.186;2023-04-08T06:59:08;100236.34;;;3.50;100.00
49102;BME280;34913;47.520;19.186;2023-04-08T07:01:34;100242.81;;;3.43;100.00
49102;BME280;34913;47.520;19.186;2023-04-08T07:04:00;100237.50;;;3.45;100.00
49102;BME280;34913;47.520;19.186;2023-04-08T07:06:26;100235.44;;;3.51;100.00
49102;BME280;34913;47.520;19.186;2023-04-08T07:08:52;100244.22;;;3.50;100.00
49102;BME280;34913;47.520;19.186;2023-04-08T07:11:17;100237.50;;;3.45;100.00
49102;BME280;34913;47.520;19.186;2023-04-08T07:13:43;100243.22;;;3.53;100.00
49102;BME280;34913;47.520;19.186;2023-04-08T07:16:08;100245.38;;;3.62;100.00
49102;BME280;34913;47.520;19.186;2023-04-08T07:18:34;100246.31;;;3.61;100.00
49102;BME280;34913;47.520;19.186;2023-04-08T07:20:59;100244.06;;;3.53;100.00
49102;BME280;34913;47.520;19.186;2023-04-08T07:23:25;100245.63;;;3.57;100.00
49102;BME280;34913;47.520;19.186;2023-04-08T07:25:51;100240.44;;;3.73;100.00
49102;BME280;34913;47.520;19.186;2023-04-08T07:28:16;100252.84;;;3.87;100.00
49102;BME280;34913;47.520;19.186;2023-04-08T07:30:42;100254.25;;;3.77;100.00
49102;BME280;34913;47.520;19.186;2023-04-08T07:33:07;100259.50;;;3.77;100.00
49102;BME280;34913;47.520;19.186;2023-04-08T07:35:33;100262.91;;;3.79;100.00
49102;BME280;34913;47.520;19.186;2023-04-08T07:37:58;100266.53;;;3.76;100.00
49102;BME280;34913;47.520;19.186;2023-04-08T07:40:24;100265.59;;;3.60;100.00
49102;BME280;34913;47.520;19.186;2023-04-08T07:42:49;100271.03;;;3.57;100.00
49102;BME280;34913;47.520;19.186;2023-04-08T07:45:15;100277.50;;;3.67;100.00
49102;BME280;34913;47.520;19.186;2023-04-08T07:47:40;100278.75;;;3.77;100.00
49102;BME280;34913;47.520;19.186;2023-04-08T07:50:06;100287.47;;;3.78;100.00
49102;BME280;34913;47.520;19.186;2023-04-08T07:52:32;100284.16;;;3.74;100.00
49102;BME280;34913;47.520;19.186;2023-04-08T07:54:58;100278.19;;;3.71;100.00
49102;BME280;34913;47.520;19.186;2023-04-08T07:57:24;100277.22;;;3.73;100.00
49102;BME280;34913;47.520;19.186;2023-04-08T07:59:50;100285.75;;;3.77;100.00
49102;BME280;34913;47.520;19.186;2023-04-08T08:02:15;100285.28;;;3.69;100.00
49102;BME280;34913;47.520;19.186;2023-04-08T08:04:41;100290.34;;;3.73;100.00
49102;BME280;34913;47.520;19.186;2023-04-08T08:07:06;100285.69;;;3.78;100.00
49102;BME280;34913;47.520;19.186;2023-04-08T08:09:32;100287.53;;;3.76;100.00
49102;BME280;34913;47.520;19.186;2023-04-08T08:11:57;100283.59;;;3.85;100.00
49102;BME280;34913;47.520;19.186;2023-04-08T08:14:23;100287.78;;;4.06;100.00
49102;BME280;34913;47.520;19.186;2023-04-08T08:16:49;100290.50;;;3.87;100.00
49102;BME280;34913;47.520;19.186;2023-04-08T08:19:14;100285.53;;;3.64;100.00
49102;BME280;34913;47.520;19.186;2023-04-08T08:21:40;100293.94;;;3.71;100.00
49102;BME280;34913;47.520;19.186;2023-04-08T08:24:06;100293.56;;;3.78;100.00
49102;BME280;34913;47.520;19.186;2023-04-08T08:26:34;100297.13;;;3.77;100.00
49102;BME280;34913;47.520;19.186;2023-04-08T08:29:01;100300.53;;;3.79;100.00
49102;BME280;34913;47.520;19.186;2023-04-08T08:31:26;100299.34;;;3.85;100.00
49102;BME280;34913;47.520;19.186;2023-04-08T08:33:52;100304.31;;;3.91;100.00
49102;BME280;34913;47.520;19.186;2023-04-08T08:36:17;100303.00;;;4.00;100.00
49102;BME280;34913;47.520;19.186;2023-04-08T08:38:43;100302.31;;;4.13;100.00
49102;BME280;34913;47.520;19.186;2023-04-08T08:41:08;100300.91;;;3.89;100.00
49102;BME280;34913;47.520;19.186;2023-04-08T08:43:34;100307.78;;;3.91;100.00
49102;BME280;34913;47.520;19.186;2023-04-08T08:45:59;100303.94;;;3.99;100.00
49102;BME280;34913;47.520;19.186;2023-04-08T08:48:26;100314.59;;;4.13;100.00
49102;BME280;34913;47.520;19.186;2023-04-08T08:50:51;100313.28;;;4.04;100.00
49102;BME280;34913;47.520;19.186;2023-04-08T08:53:17;100310.09;;;3.98;100.00
49102;BME280;34913;47.520;19.186;2023-04-08T08:55:43;100313.13;;;3.90;100.00
49102;BME280;34913;47.520;19.186;2023-04-08T08:58:09;100315.28;;;3.82;100.00
49102;BME280;34913;47.520;19.186;2023-04-08T09:00:39;100312.56;;;3.83;100.00
49102;BME280;34913;47.520;19.186;2023-04-08T09:03:27;100324.31;;;3.93;100.00
49102;BME280;34913;47.520;19.186;2023-04-08T09:06:00;100321.22;;;4.03;100.00
49102;BME280;34913;47.520;19.186;2023-04-08T09:11:19;100332.28;;;4.27;100.00
49102;BME280;34913;47.520;19.186;2023-04-08T09:13:46;100334.88;;;4.44;100.00
49102;BME280;34913;47.520;19.186;2023-04-08T09:16:16;100334.72;;;4.47;99.84
49102;BME280;34913;47.520;19.186;2023-04-08T09:18:45;100334.44;;;4.36;100.00
49102;BME280;34913;47.520;19.186;2023-04-08T09:21:14;100334.88;;;4.44;100.00
49102;BME280;34913;47.520;19.186;2023-04-08T09:26:11;100340.53;;;4.36;99.82
49102;BME280;34913;47.520;19.186;2023-04-08T09:28:37;100341.34;;;4.54;98.59
49102;BME280;34913;47.520;19.186;2023-04-08T09:31:23;100349.31;;;4.53;98.90
49102;BME280;34913;47.520;19.186;2023-04-08T09:33:51;100348.56;;;4.51;98.08
49102;BME280;34913;47.520;19.186;2023-04-08T09:36:17;100349.00;;;4.59;98.56
49102;BME280;34913;47.520;19.186;2023-04-08T09:38:43;100348.13;;;4.75;98.43
49102;BME280;34913;47.520;19.186;2023-04-08T09:41:12;100355.16;;;4.75;97.90
49102;BME280;34913;47.520;19.186;2023-04-08T09:43:42;100351.94;;;4.53;96.52
49102;BME280;34913;47.520;19.186;2023-04-08T09:46:14;100347.16;;;4.61;98.24
49102;BME280;34913;47.520;19.186;2023-04-08T09:48:45;100349.81;;;4.76;98.98
49102;BME280;34913;47.520;19.186;2023-04-08T09:51:15;100350.34;;;4.83;99.53
49102;BME280;34913;47.520;19.186;2023-04-08T09:53:46;100356.09;;;4.74;98.33
49102;BME280;34913;47.520;19.186;2023-04-08T09:56:13;100356.09;;;4.74;97.29
49102;BME280;34913;47.520;19.186;2023-04-08T09:58:45;100355.44;;;4.86;98.07
49102;BME280;34913;47.520;19.186;2023-04-08T10:01:13;100361.53;;;4.87;96.40
49102;BME280;34913;47.520;19.186;2023-04-08T10:03:48;100366.22;;;4.97;97.50
49102;BME280;34913;47.520;19.186;2023-04-08T10:06:16;100361.72;;;4.84;94.90
49102;BME280;34913;47.520;19.186;2023-04-08T10:08:43;100363.03;;;4.75;94.63
49102;BME280;34913;47.520;19.186;2023-04-08T10:11:09;100360.97;;;4.64;94.81
49102;BME280;34913;47.520;19.186;2023-04-08T10:13:35;100361.34;;;4.57;95.45
49102;BME280;34913;47.520;19.186;2023-04-08T10:16:19;100360.34;;;4.76;97.55
49102;BME280;34913;47.520;19.186;2023-04-08T10:18:46;100362.81;;;4.95;97.08
49102;BME280;34913;47.520;19.186;2023-04-08T10:24:09;100357.53;;;4.80;95.78
49102;BME280;34913;47.520;19.186;2023-04-08T10:26:42;100360.88;;;4.83;96.03
49102;BME280;34913;47.520;19.186;2023-04-08T10:31:45;100363.75;;;4.61;95.34
49102;BME280;34913;47.520;19.186;2023-04-08T10:34:19;100354.13;;;4.78;97.88
49102;BME280;34913;47.520;19.186;2023-04-08T10:36:46;100359.00;;;4.85;96.58
49102;BME280;34913;47.520;19.186;2023-04-08T10:39:13;100357.66;;;4.94;95.26
49102;BME280;34913;47.520;19.186;2023-04-08T10:41:49;100357.25;;;5.01;95.83
49102;BME280;34913;47.520;19.186;2023-04-08T10:44:17;100358.19;;;5.00;96.79
49102;BME280;34913;47.520;19.186;2023-04-08T10:46:43;100358.09;;;5.02;97.32
49102;BME280;34913;47.520;19.186;2023-04-08T10:49:09;100358.69;;;4.91;94.97
49102;BME280;34913;47.520;19.186;2023-04-08T10:51:35;100359.34;;;4.95;95.42
49102;BME280;34913;47.520;19.186;2023-04-08T10:54:11;100358.59;;;5.09;95.86
49102;BME280;34913;47.520;19.186;2023-04-08T10:56:48;100366.50;;;5.09;95.77
49102;BME280;34913;47.520;19.186;2023-04-08T10:59:15;100368.44;;;5.05;93.72
49102;BME280;34913;47.520;19.186;2023-04-08T11:01:43;100365.97;;;5.02;94.32
49102;BME280;34913;47.520;19.186;2023-04-08T11:04:13;100365.91;;;5.35;97.12
49102;BME280;34913;47.520;19.186;2023-04-08T11:06:41;100357.25;;;5.49;94.30
49102;BME280;34913;47.520;19.186;2023-04-08T11:09:07;100359.91;;;5.49;91.72
49102;BME280;34913;47.520;19.186;2023-04-08T11:11:33;100356.66;;;5.59;91.79
49102;BME280;34913;47.520;19.186;2023-04-08T11:13:58;100363.38;;;5.49;91.25
49102;BME280;34913;47.520;19.186;2023-04-08T11:16:25;100355.47;;;5.49;91.09
49102;BME280;34913;47.520;19.186;2023-04-08T11:18:52;100353.69;;;5.66;92.02
49102;BME280;34913;47.520;19.186;2023-04-08T11:21:18;100358.72;;;5.54;89.68
49102;BME280;34913;47.520;19.186;2023-04-08T11:23:43;100364.03;;;5.53;91.93
49102;BME280;34913;47.520;19.186;2023-04-08T11:26:09;100358.97;;;5.50;89.63
49102;BME280;34913;47.520;19.186;2023-04-08T11:28:35;100361.91;;;5.44;89.70
49102;BME280;34913;47.520;19.186;2023-04-08T11:31:01;100360.97;;;5.60;90.22
49102;BME280;34913;47.520;19.186;2023-04-08T11:33:31;100360.97;;;5.76;89.75
49102;BME280;34913;47.520;19.186;2023-04-08T11:35:57;100363.63;;;5.60;87.90
49102;BME280;34913;47.520;19.186;2023-04-08T11:38:25;100367.19;;;5.59;89.88
49102;BME280;34913;47.520;19.186;2023-04-08T11:40:57;100366.50;;;5.72;92.02
49102;BME280;34913;47.520;19.186;2023-04-08T11:43:23;100364.50;;;5.61;88.83
49102;BME280;34913;47.520;19.186;2023-04-08T11:45:49;100369.31;;;5.53;88.80
49102;BME280;34913;47.520;19.186;2023-04-08T11:48:15;100364.91;;;5.53;89.35
49102;BME280;34913;47.520;19.186;2023-04-08T11:50:42;100359.66;;;5.53;90.64
49102;BME280;34913;47.520;19.186;2023-04-08T11:53:23;100363.28;;;5.67;88.71
49102;BME280;34913;47.520;19.186;2023-04-08T11:55:49;100364.81;;;5.71;88.50
49102;BME280;34913;47.520;19.186;2023-04-08T11:58:15;100362.84;;;5.74;89.13
49102;BME280;34913;47.520;19.186;2023-04-08T12:00:41;100370.59;;;5.62;88.33
49102;BME280;34913;47.520;19.186;2023-04-08T12:03:07;100356.09;;;5.84;90.23
49102;BME280;34913;47.520;19.186;2023-04-08T12:05:32;100368.63;;;5.81;87.75
49102;BME280;34913;47.520;19.186;2023-04-08T12:07:58;100359.91;;;5.49;88.15
49102;BME280;34913;47.520;19.186;2023-04-08T12:10:23;100364.31;;;5.32;86.93
49102;BME280;34913;47.520;19.186;2023-04-08T12:12:51;100364.97;;;5.52;89.71
49102;BME280;34913;47.520;19.186;2023-04-08T12:15:17;100356.00;;;5.56;87.97
49102;BME280;34913;47.520;19.186;2023-04-08T12:17:43;100359.47;;;5.56;88.37
49102;BME280;34913;47.520;19.186;2023-04-08T12:20:10;100356.06;;;5.70;89.31
49102;BME280;34913;47.520;19.186;2023-04-08T12:22:36;100364.63;;;5.74;86.88
49102;BME280;34913;47.520;19.186;2023-04-08T12:25:01;100359.88;;;5.65;87.41
49102;BME280;34913;47.520;19.186;2023-04-08T12:27:31;100361.69;;;5.48;89.32
49102;BME280;34913;47.520;19.186;2023-04-08T12:30:01;100362.34;;;5.52;90.65
49102;BME280;34913;47.520;19.186;2023-04-08T12:32:27;100354.03;;;5.59;90.70
49102;BME280;34913;47.520;19.186;2023-04-08T12:34:53;100355.53;;;5.79;91.47
49102;BME280;34913;47.520;19.186;2023-04-08T12:37:18;100351.88;;;5.98;89.68
49102;BME280;34913;47.520;19.186;2023-04-08T12:39:45;100351.53;;;6.04;88.20
49102;BME280;34913;47.520;19.186;2023-04-08T12:42:10;100351.03;;;5.81;88.63
49102;BME280;34913;47.520;19.186;2023-04-08T12:44:36;100356.78;;;5.88;90.10
49102;BME280;34913;47.520;19.186;2023-04-08T12:47:01;100356.88;;;6.02;90.06
49102;BME280;34913;47.520;19.186;2023-04-08T12:49:26;100360.75;;;6.11;88.44
49102;BME280;34913;47.520;19.186;2023-04-08T12:51:52;100356.88;;;6.02;87.54
49102;BME280;34913;47.520;19.186;2023-04-08T12:54:19;100356.53;;;6.08;88.79
49102;BME280;34913;47.520;19.186;2023-04-08T12:56:45;100359.22;;;6.07;87.91